sensor_id;sensor_type;location;lat;lon;timestamp;temperature;humidity
19085;DHT22;9675;51.538;6.728;2023-03-01T00:01:01;4.70;99.90
19085;DHT22;9675;51.538;6.728;2023-03-01T00:03:28;4.70;99.90
19085;DHT22;9675;51.538;6.728;2023-03-01T00:05:55;4.60;99.90
19085;DHT22;9675;51.538;6.728;2023-03-01T00:08:22;4.60;99.90
19085;DHT22;9675;51.538;6.728;2023-03-01T00:10:59;4.60;99.90
19085;DHT22;9675;51.538;6.728;2023-03-01T00:13:26;4.60;99.90
19085;DHT22;9675;51.538;6.728;2023-03-01T00:15:55;4.50;99.90
19085;DHT22;9675;51.538;6.728;2023-03-01T00:18:22;4.50;99.90
19085;DHT22;9675;51.538;6.728;2023-03-01T00:20:53;4.50;99.90
19085;DHT22;9675;51.538;6.728;2023-03-01T00:23:21;4.40;99.90
19085;DHT22;9675;51.538;6.728;2023-03-01T00:25:50;4.40;99.90
19085;DHT22;9675;51.538;6.728;2023-03-01T00:28:18;4.40;99.90
19085;DHT22;9675;51.538;6.728;2023-03-01T00:30:46;4.40;99.90
19085;DHT22;9675;51.538;6.728;2023-03-01T00:33:15;4.40;99.90
19085;DHT22;9675;51.538;6.728;2023-03-01T00:35:42;4.30;99.90
19085;DHT22;9675;51.538;6.728;2023-03-01T00:38:09;4.30;99.90
19085;DHT22;9675;51.538;6.728;2023-03-01T00:40:36;4.30;99.90
19085;DHT22;9675;51.538;6.728;2023-03-01T00:43:04;4.20;99.90
19085;DHT22;9675;51.538;6.728;2023-03-01T00:45:32;4.20;99.90
19085;DHT22;9675;51.538;6.728;2023-03-01T00:48:00;4.20;99.90
19085;DHT22;9675;51.538;6.728;2023-03-01T00:50:28;4.20;99.90
19085;DHT22;9675;51.538;6.728;2023-03-01T00:52:55;4.20;99.90
19085;DHT22;9675;51.538;6.728;2023-03-01T00:55:23;4.10;99.90
19085;DHT22;9675;51.538;6.728;2023-03-01T00:57:50;4.10;99.90
19085;DHT22;9675;51.538;6.728;2023-03-01T01:00:18;4.10;99.90
19085;DHT22;9675;51.538;6.728;2023-03-01T01:02:46;4.00;99.90
19085;DHT22;9675;51.538;6.728;2023-03-01T01:05:13;4.00;99.90
19085;DHT22;9675;51.538;6.728;2023-03-01T01:07:48;4.00;99.90
19085;DHT22;9675;51.538;6.728;2023-03-01T01:10:15;3.90;99.90
19085;DHT22;9675;51.538;6.728;2023-03-01T01:12:44;3.90;99.90
19085;DHT22;9675;51.538;6.728;2023-03-01T01:15:12;3.90;99.90
19085;DHT22;9675;51.538;6.728;2023-03-01T01:17:42;3.90;99.90
19085;DHT22;9675;51.538;6.728;2023-03-01T01:20:10;3.80;99.90
19085;DHT22;9675;51.538;6.728;2023-03-01T01:22:38;3.80;99.90
19085;DHT22;9675;51.538;6.728;2023-03-01T01:25:08;3.80;99.90
19085;DHT22;9675;51.538;6.728;2023-03-01T01:27:36;3.80;99.90
19085;DHT22;9675;51.538;6.728;2023-03-01T01:30:04;3.80;99.90
19085;DHT22;9675;51.538;6.728;2023-03-01T01:32:32;3.70;99.90
19085;DHT22;9675;51.538;6.728;2023-03-01T01:34:59;3.70;99.90
19085;DHT22;9675;51.538;6.728;2023-03-01T01:37:26;3.70;99.90
19085;DHT22;9675;51.538;6.728;2023-03-01T01:39:56;3.70;99.90
19085;DHT22;9675;51.538;6.728;2023-03-01T01:42:26;3.60;99.90
19085;DHT22;9675;51.538;6.728;2023-03-01T01:45:26;3.70;99.90
19085;DHT22;9675;51.538;6.728;2023-03-01T01:47:58;3.60;99.90
19085;DHT22;9675;51.538;6.728;2023-03-01T01:50:30;3.60;99.90
19085;DHT22;9675;51.538;6.728;2023-03-01T01:53:05;3.60;99.90
19085;DHT22;9675;51.538;6.728;2023-03-01T01:55:36;3.60;99.90
19085;DHT22;9675;51.538;6.728;2023-03-01T01:58:11;3.50;99.90
19085;DHT22;9675;51.538;6.728;2023-03-01T02:00:42;3.60;99.90
19085;DHT22;9675;51.538;6.728;2023-03-01T02:03:11;3.50;99.90
19085;DHT22;9675;51.538;6.728;2023-03-01T02:05:47;3.50;99.90
19085;DHT22;9675;51.538;6.728;2023-03-01T02:08:19;3.50;99.90
19085;DHT22;9675;51.538;6.728;2023-03-01T02:10:49;3.50;99.90
19085;DHT22;9675;51.538;6.728;2023-03-01T02:13:19;3.40;99.90
19085;DHT22;9675;51.538;6.728;2023-03-01T02:15:46;3.40;99.90
19085;DHT22;9675;51.538;6.728;2023-03-01T02:18:17;3.40;99.90
19085;DHT22;9675;51.538;6.728;2023-03-01T02:20:55;3.40;99.90
19085;DHT22;9675;51.538;6.728;2023-03-01T02:23:33;3.40;99.90
19085;DHT22;9675;51.538;6.728;2023-03-01T02:26:06;3.40;99.90
19085;DHT22;9675;51.538;6.728;2023-03-01T02:28:42;3.30;99.90
19085;DHT22;9675;51.538;6.728;2023-03-01T02:31:13;3.30;99.90
19085;DHT22;9675;51.538;6.728;2023-03-01T02:34:00;3.30;99.90
19085;DHT22;9675;51.538;6.728;2023-03-01T02:36:32;3.30;99.90
19085;DHT22;9675;51.538;6.728;2023-03-01T02:39:05;3.20;99.90
19085;DHT22;9675;51.538;6.728;2023-03-01T02:41:36;3.20;99.90
19085;DHT22;9675;51.538;6.728;2023-03-01T02:44:07;3.20;99.90
19085;DHT22;9675;51.538;6.728;2023-03-01T02:46:42;3.20;99.90
19085;DHT22;9675;51.538;6.728;2023-03-01T02:49:19;3.10;99.90
19085;DHT22;9675;51.538;6.728;2023-03-01T02:52:01;3.10;99.90
19085;DHT22;9675;51.538;6.728;2023-03-01T02:54:42;3.10;99.90
19085;DHT22;9675;51.538;6.728;2023-03-01T02:57:13;3.10;99.90
19085;DHT22;9675;51.538;6.728;2023-03-01T02:59:42;3.00;99.90
19085;DHT22;9675;51.538;6.728;2023-03-01T03:02:19;3.00;99.90
19085;DHT22;9675;51.538;6.728;2023-03-01T03:05:02;3.00;99.90
19085;DHT22;9675;51.538;6.728;2023-03-01T03:07:34;3.00;99.90
19085;DHT22;9675;51.538;6.728;2023-03-01T03:10:04;3.00;99.90
19085;DHT22;9675;51.538;6.728;2023-03-01T03:12:33;3.00;99.90
19085;DHT22;9675;51.538;6.728;2023-03-01T03:15:01;3.00;99.90
19085;DHT22;9675;51.538;6.728;2023-03-01T03:17:34;2.90;99.90
19085;DHT22;9675;51.538;6.728;2023-03-01T03:20:03;2.90;99.90
19085;DHT22;9675;51.538;6.728;2023-03-01T03:22:31;2.90;99.90
19085;DHT22;9675;51.538;6.728;2023-03-01T03:24:59;2.90;99.90
19085;DHT22;9675;51.538;6.728;2023-03-01T03:27:27;2.90;99.90
19085;DHT22;9675;51.538;6.728;2023-03-01T03:29:54;2.90;99.90
19085;DHT22;9675;51.538;6.728;2023-03-01T03:32:23;2.90;99.90
19085;DHT22;9675;51.538;6.728;2023-03-01T03:34:50;2.80;99.90
19085;DHT22;9675;51.538;6.728;2023-03-01T03:37:17;2.80;99.90
19085;DHT22;9675;51.538;6.728;2023-03-01T03:39:58;2.80;99.90
19085;DHT22;9675;51.538;6.728;2023-03-01T03:42:26;2.80;99.90
19085;DHT22;9675;51.538;6.728;2023-03-01T03:44:53;2.70;99.90
19085;DHT22;9675;51.538;6.728;2023-03-01T03:47:20;2.70;99.90
19085;DHT22;9675;51.538;6.728;2023-03-01T03:49:48;2.70;99.90
19085;DHT22;9675;51.538;6.728;2023-03-01T03:52:15;2.70;99.90
19085;DHT22;9675;51.538;6.728;2023-03-01T03:54:42;2.60;99.90
19085;DHT22;9675;51.538;6.728;2023-03-01T03:57:09;2.60;99.90
19085;DHT22;9675;51.538;6.728;2023-03-01T03:59:36;2.60;99.90
19085;DHT22;9675;51.538;6.728;2023-03-01T04:02:03;2.50;99.90
19085;DHT22;9675;51.538;6.728;2023-03-01T04:04:31;2.60;99.90
19085;DHT22;9675;51.538;6.728;2023-03-01T04:06:59;2.50;99.90
19085;DHT22;9675;51.538;6.728;2023-03-01T04:09:26;2.50;99.90
19085;DHT22;9675;51.538;6.728;2023-03-01T04:11:55;2.60;99.90
19085;DHT22;9675;51.538;6.728;2023-03-01T04:14:22;2.50;99.90
19085;DHT22;9675;51.538;6.728;2023-03-01T04:16:49;2.50;99.90
19085;DHT22;9675;51.538;6.728;2023-03-01T04:19:16;2.40;99.90
19085;DHT22;9675;51.538;6.728;2023-03-01T04:21:43;2.40;99.90
19085;DHT22;9675;51.538;6.728;2023-03-01T04:24:11;2.40;99.90
19085;DHT22;9675;51.538;6.728;2023-03-01T04:26:38;2.40;99.90
19085;DHT22;9675;51.538;6.728;2023-03-01T04:29:06;2.40;99.90
19085;DHT22;9675;51.538;6.728;2023-03-01T04:31:33;2.40;99.90
19085;DHT22;9675;51.538;6.728;2023-03-01T04:34:00;2.40;99.90
19085;DHT22;9675;51.538;6.728;2023-03-01T04:36:28;2.40;99.90
19085;DHT22;9675;51.538;6.728;2023-03-01T04:38:56;2.30;99.90
19085;DHT22;9675;51.538;6.728;2023-03-01T04:41:25;2.30;99.90
19085;DHT22;9675;51.538;6.728;2023-03-01T04:43:52;2.30;99.90
19085;DHT22;9675;51.538;6.728;2023-03-01T04:46:20;2.30;99.90
19085;DHT22;9675;51.538;6.728;2023-03-01T04:48:48;2.30;99.90
19085;DHT22;9675;51.538;6.728;2023-03-01T04:51:15;2.20;99.90
19085;DHT22;9675;51.538;6.728;2023-03-01T04:53:44;2.20;99.90
19085;DHT22;9675;51.538;6.728;2023-03-01T04:56:11;2.10;99.90
19085;DHT22;9675;51.538;6.728;2023-03-01T04:58:41;1.90;99.90
19085;DHT22;9675;51.538;6.728;2023-03-01T05:01:09;1.80;99.90
19085;DHT22;9675;51.538;6.728;2023-03-01T05:03:41;1.80;99.90
19085;DHT22;9675;51.538;6.728;2023-03-01T05:06:09;1.70;99.90
19085;DHT22;9675;51.538;6.728;2023-03-01T05:08:36;1.70;99.90
19085;DHT22;9675;51.538;6.728;2023-03-01T05:11:04;1.70;99.90
19085;DHT22;9675;51.538;6.728;2023-03-01T05:13:35;1.70;99.90
19085;DHT22;9675;51.538;6.728;2023-03-01T05:16:05;1.70;99.90
19085;DHT22;9675;51.538;6.728;2023-03-01T05:18:36;1.70;99.90
19085;DHT22;9675;51.538;6.728;2023-03-01T05:21:06;1.60;99.90
19085;DHT22;9675;51.538;6.728;2023-03-01T05:23:34;1.60;99.90
19085;DHT22;9675;51.538;6.728;2023-03-01T05:26:02;1.60;99.90
19085;DHT22;9675;51.538;6.728;2023-03-01T05:28:31;1.50;99.90
19085;DHT22;9675;51.538;6.728;2023-03-01T05:30:59;1.50;99.90
19085;DHT22;9675;51.538;6.728;2023-03-01T05:33:27;1.50;99.90
19085;DHT22;9675;51.538;6.728;2023-03-01T05:35:59;1.60;99.90
19085;DHT22;9675;51.538;6.728;2023-03-01T05:38:26;1.50;99.90
19085;DHT22;9675;51.538;6.728;2023-03-01T05:40:53;1.50;99.90
19085;DHT22;9675;51.538;6.728;2023-03-01T05:43:20;1.50;99.90
19085;DHT22;9675;51.538;6.728;2023-03-01T05:45:47;1.40;99.90
19085;DHT22;9675;51.538;6.728;2023-03-01T05:48:14;1.40;99.90
19085;DHT22;9675;51.538;6.728;2023-03-01T05:50:44;1.40;99.90
19085;DHT22;9675;51.538;6.728;2023-03-01T05:53:15;1.40;99.90
19085;DHT22;9675;51.538;6.728;2023-03-01T05:55:44;1.30;99.90
19085;DHT22;9675;51.538;6.728;2023-03-01T05:58:14;1.30;99.90
19085;DHT22;9675;51.538;6.728;2023-03-01T06:00:44;1.30;99.90
19085;DHT22;9675;51.538;6.728;2023-03-01T06:03:13;1.30;99.90
19085;DHT22;9675;51.538;6.728;2023-03-01T06:05:44;1.30;99.90
19085;DHT22;9675;51.538;6.728;2023-03-01T06:08:12;1.20;99.90
19085;DHT22;9675;51.538;6.728;2023-03-01T06:10:39;1.20;99.90
19085;DHT22;9675;51.538;6.728;2023-03-01T06:13:07;1.20;99.90
19085;DHT22;9675;51.538;6.728;2023-03-01T06:15:34;1.20;99.90
19085;DHT22;9675;51.538;6.728;2023-03-01T06:18:01;1.20;99.90
19085;DHT22;9675;51.538;6.728;2023-03-01T06:20:28;1.20;99.90
19085;DHT22;9675;51.538;6.728;2023-03-01T06:22:57;1.10;99.90
19085;DHT22;9675;51.538;6.728;2023-03-01T06:25:26;1.10;99.90
19085;DHT22;9675;51.538;6.728;2023-03-01T06:27:54;1.10;99.90
19085;DHT22;9675;51.538;6.728;2023-03-01T06:30:23;1.10;99.90
19085;DHT22;9675;51.538;6.728;2023-03-01T06:32:52;1.10;99.90
19085;DHT22;9675;51.538;6.728;2023-03-01T06:35:27;1.10;99.90
19085;DHT22;9675;51.538;6.728;2023-03-01T06:38:02;1.10;99.90
19085;DHT22;9675;51.538;6.728;2023-03-01T06:40:36;1.10;99.90
19085;DHT22;9675;51.538;6.728;2023-03-01T06:43:07;1.10;99.90
19085;DHT22;9675;51.538;6.728;2023-03-01T06:45:34;1.10;99.90
19085;DHT22;9675;51.538;6.728;2023-03-01T06:48:02;1.10;99.90
19085;DHT22;9675;51.538;6.728;2023-03-01T06:50:30;1.00;99.90
19085;DHT22;9675;51.538;6.728;2023-03-01T06:52:59;1.00;99.90
19085;DHT22;9675;51.538;6.728;2023-03-01T06:55:26;1.00;99.90
19085;DHT22;9675;51.538;6.728;2023-03-01T06:57:54;1.00;99.90
19085;DHT22;9675;51.538;6.728;2023-03-01T07:00:23;1.00;99.90
19085;DHT22;9675;51.538;6.728;2023-03-01T07:02:51;1.00;99.90
19085;DHT22;9675;51.538;6.728;2023-03-01T07:05:18;1.00;99.90
19085;DHT22;9675;51.538;6.728;2023-03-01T07:07:45;1.00;99.90
19085;DHT22;9675;51.538;6.728;2023-03-01T07:10:14;1.00;99.90
19085;DHT22;9675;51.538;6.728;2023-03-01T07:12:41;1.00;99.90
19085;DHT22;9675;51.538;6.728;2023-03-01T07:15:09;1.00;99.90
19085;DHT22;9675;51.538;6.728;2023-03-01T07:17:37;1.00;99.90
19085;DHT22;9675;51.538;6.728;2023-03-01T07:20:05;1.00;99.90
19085;DHT22;9675;51.538;6.728;2023-03-01T07:22:32;1.00;99.90
19085;DHT22;9675;51.538;6.728;2023-03-01T07:24:59;1.00;99.90
19085;DHT22;9675;51.538;6.728;2023-03-01T07:27:27;1.00;99.90
19085;DHT22;9675;51.538;6.728;2023-03-01T07:29:54;1.00;99.90
19085;DHT22;9675;51.538;6.728;2023-03-01T07:32:21;1.00;99.90
19085;DHT22;9675;51.538;6.728;2023-03-01T07:34:48;1.00;99.90
19085;DHT22;9675;51.538;6.728;2023-03-01T07:37:15;0.90;99.90
19085;DHT22;9675;51.538;6.728;2023-03-01T07:39:43;0.90;99.90
19085;DHT22;9675;51.538;6.728;2023-03-01T07:42:10;0.90;99.90
19085;DHT22;9675;51.538;6.728;2023-03-01T07:44:38;0.90;99.90
19085;DHT22;9675;51.538;6.728;2023-03-01T07:47:05;0.90;99.90
19085;DHT22;9675;51.538;6.728;2023-03-01T07:49:32;1.00;99.90
19085;DHT22;9675;51.538;6.728;2023-03-01T07:51:59;1.00;99.90
19085;DHT22;9675;51.538;6.728;2023-03-01T07:54:26;1.00;99.90
19085;DHT22;9675;51.538;6.728;2023-03-01T07:56:53;1.00;99.90
19085;DHT22;9675;51.538;6.728;2023-03-01T07:59:20;1.00;99.90
19085;DHT22;9675;51.538;6.728;2023-03-01T08:01:50;1.00;99.90
19085;DHT22;9675;51.538;6.728;2023-03-01T08:04:17;1.00;99.90
19085;DHT22;9675;51.538;6.728;2023-03-01T08:06:44;1.00;99.90
19085;DHT22;9675;51.538;6.728;2023-03-01T08:09:11;1.00;99.90
19085;DHT22;9675;51.538;6.728;2023-03-01T08:11:38;1.00;99.90
19085;DHT22;9675;51.538;6.728;2023-03-01T08:14:06;1.00;99.90
19085;DHT22;9675;51.538;6.728;2023-03-01T08:16:34;1.00;99.90
19085;DHT22;9675;51.538;6.728;2023-03-01T08:19:05;1.10;99.90
19085;DHT22;9675;51.538;6.728;2023-03-01T08:21:33;1.10;99.90
19085;DHT22;9675;51.538;6.728;2023-03-01T08:24:01;1.10;99.90
19085;DHT22;9675;51.538;6.728;2023-03-01T08:26:29;1.10;99.90
19085;DHT22;9675;51.538;6.728;2023-03-01T08:28:56;1.20;99.90
19085;DHT22;9675;51.538;6.728;2023-03-01T08:31:25;1.20;99.90
19085;DHT22;9675;51.538;6.728;2023-03-01T08:33:56;1.30;99.90
19085;DHT22;9675;51.538;6.728;2023-03-01T08:36:27;1.30;99.90
19085;DHT22;9675;51.538;6.728;2023-03-01T08:38:56;1.40;99.90
19085;DHT22;9675;51.538;6.728;2023-03-01T08:41:24;1.40;99.90
19085;DHT22;9675;51.538;6.728;2023-03-01T08:43:53;1.50;99.90
19085;DHT22;9675;51.538;6.728;2023-03-01T08:46:24;1.60;99.90
19085;DHT22;9675;51.538;6.728;2023-03-01T08:48:52;1.60;99.90
19085;DHT22;9675;51.538;6.728;2023-03-01T08:51:20;1.70;99.90
19085;DHT22;9675;51.538;6.728;2023-03-01T08:53:49;1.80;99.90
19085;DHT22;9675;51.538;6.728;2023-03-01T08:56:17;1.90;99.90
19085;DHT22;9675;51.538;6.728;2023-03-01T08:58:46;2.00;99.90
19085;DHT22;9675;51.538;6.728;2023-03-01T09:01:16;2.00;99.90
19085;DHT22;9675;51.538;6.728;2023-03-01T09:03:44;2.10;99.90
19085;DHT22;9675;51.538;6.728;2023-03-01T09:06:12;2.20;99.90
19085;DHT22;9675;51.538;6.728;2023-03-01T09:08:43;2.20;99.90
19085;DHT22;9675;51.538;6.728;2023-03-01T09:11:15;2.30;99.90
19085;DHT22;9675;51.538;6.728;2023-03-01T09:13:43;2.40;99.90
19085;DHT22;9675;51.538;6.728;2023-03-01T09:16:13;2.40;99.90
19085;DHT22;9675;51.538;6.728;2023-03-01T09:18:42;2.50;99.90
19085;DHT22;9675;51.538;6.728;2023-03-01T09:21:10;2.60;99.90
19085;DHT22;9675;51.538;6.728;2023-03-01T09:23:41;2.70;99.90
19085;DHT22;9675;51.538;6.728;2023-03-01T09:26:12;2.80;99.90
19085;DHT22;9675;51.538;6.728;2023-03-01T09:28:40;2.80;99.90
19085;DHT22;9675;51.538;6.728;2023-03-01T09:31:07;2.90;99.90
19085;DHT22;9675;51.538;6.728;2023-03-01T09:33:34;3.00;99.90
19085;DHT22;9675;51.538;6.728;2023-03-01T09:36:03;3.10;99.90
19085;DHT22;9675;51.538;6.728;2023-03-01T09:38:33;3.20;99.90
19085;DHT22;9675;51.538;6.728;2023-03-01T09:41:00;3.30;99.90
19085;DHT22;9675;51.538;6.728;2023-03-01T09:43:35;3.40;99.90
19085;DHT22;9675;51.538;6.728;2023-03-01T09:46:12;3.50;99.90
19085;DHT22;9675;51.538;6.728;2023-03-01T09:48:44;3.60;99.90
19085;DHT22;9675;51.538;6.728;2023-03-01T09:51:18;3.70;99.90
19085;DHT22;9675;51.538;6.728;2023-03-01T09:53:50;3.80;99.90
19085;DHT22;9675;51.538;6.728;2023-03-01T09:56:22;3.90;99.90
19085;DHT22;9675;51.538;6.728;2023-03-01T09:59:15;4.10;99.90
19085;DHT22;9675;51.538;6.728;2023-03-01T10:01:51;4.20;99.90
19085;DHT22;9675;51.538;6.728;2023-03-01T10:04:32;4.30;99.90
19085;DHT22;9675;51.538;6.728;2023-03-01T10:07:21;4.40;99.90
19085;DHT22;9675;51.538;6.728;2023-03-01T10:09:56;4.60;99.90
19085;DHT22;9675;51.538;6.728;2023-03-01T10:12:40;4.80;99.90
19085;DHT22;9675;51.538;6.728;2023-03-01T10:15:13;4.90;99.90
19085;DHT22;9675;51.538;6.728;2023-03-01T10:17:48;5.10;99.90
19085;DHT22;9675;51.538;6.728;2023-03-01T10:20:21;5.30;99.90
19085;DHT22;9675;51.538;6.728;2023-03-01T10:22:50;5.40;99.90
19085;DHT22;9675;51.538;6.728;2023-03-01T10:25:29;5.50;99.90
19085;DHT22;9675;51.538;6.728;2023-03-01T10:28:16;5.60;99.90
19085;DHT22;9675;51.538;6.728;2023-03-01T10:30:47;5.80;99.90
19085;DHT22;9675;51.538;6.728;2023-03-01T10:33:19;5.90;99.90
19085;DHT22;9675;51.538;6.728;2023-03-01T10:35:48;6.10;99.90
19085;DHT22;9675;51.538;6.728;2023-03-01T10:38:17;6.20;99.90
19085;DHT22;9675;51.538;6.728;2023-03-01T10:40:54;6.30;99.90
19085;DHT22;9675;51.538;6.728;2023-03-01T10:43:24;6.40;99.90
19085;DHT22;9675;51.538;6.728;2023-03-01T10:45:54;6.50;99.90
19085;DHT22;9675;51.538;6.728;2023-03-01T10:48:23;6.60;99.90
19085;DHT22;9675;51.538;6.728;2023-03-01T10:51:05;6.70;99.90
19085;DHT22;9675;51.538;6.728;2023-03-01T10:53:35;6.80;99.90
19085;DHT22;9675;51.538;6.728;2023-03-01T10:56:06;6.90;99.90
19085;DHT22;9675;51.538;6.728;2023-03-01T10:58:37;7.00;99.90
19085;DHT22;9675;51.538;6.728;2023-03-01T11:01:25;7.10;99.90
19085;DHT22;9675;51.538;6.728;2023-03-01T11:04:10;7.10;99.90
19085;DHT22;9675;51.538;6.728;2023-03-01T11:06:40;7.30;99.90
19085;DHT22;9675;51.538;6.728;2023-03-01T11:09:14;7.40;99.90
19085;DHT22;9675;51.538;6.728;2023-03-01T11:11:44;7.50;99.90
19085;DHT22;9675;51.538;6.728;2023-03-01T11:14:16;7.60;99.90
19085;DHT22;9675;51.538;6.728;2023-03-01T11:16:47;7.70;99.90
19085;DHT22;9675;51.538;6.728;2023-03-01T11:19:24;7.80;99.90
19085;DHT22;9675;51.538;6.728;2023-03-01T11:21:56;8.00;99.90
19085;DHT22;9675;51.538;6.728;2023-03-01T11:24:37;8.00;99.90
19085;DHT22;9675;51.538;6.728;2023-03-01T11:27:16;8.10;99.90
19085;DHT22;9675;51.538;6.728;2023-03-01T11:29:48;8.20;99.90
19085;DHT22;9675;51.538;6.728;2023-03-01T11:32:24;8.20;99.90
19085;DHT22;9675;51.538;6.728;2023-03-01T11:34:57;8.30;99.90
19085;DHT22;9675;51.538;6.728;2023-03-01T11:37:33;8.30;99.90
19085;DHT22;9675;51.538;6.728;2023-03-01T11:40:13;8.40;99.90
19085;DHT22;9675;51.538;6.728;2023-03-01T11:43:01;8.40;99.90
19085;DHT22;9675;51.538;6.728;2023-03-01T11:45:46;8.50;99.90
19085;DHT22;9675;51.538;6.728;2023-03-01T11:48:42;8.60;99.90
19085;DHT22;9675;51.538;6.728;2023-03-01T11:51:22;8.70;99.90
19085;DHT22;9675;51.538;6.728;2023-03-01T11:54:03;8.80;99.90
19085;DHT22;9675;51.538;6.728;2023-03-01T11:56:50;8.90;99.90
19085;DHT22;9675;51.538;6.728;2023-03-01T11:59:43;9.00;99.90
19085;DHT22;9675;51.538;6.728;2023-03-01T12:02:41;9.10;99.90
19085;DHT22;9675;51.538;6.728;2023-03-01T12:05:59;9.10;99.90
19085;DHT22;9675;51.538;6.728;2023-03-01T12:12:17;9.20;99.90
19085;DHT22;9675;51.538;6.728;2023-03-01T12:15:23;9.30;99.90
19085;DHT22;9675;51.538;6.728;2023-03-01T12:18:16;9.30;99.90
19085;DHT22;9675;51.538;6.728;2023-03-01T12:21:14;9.40;99.90
19085;DHT22;9675;51.538;6.728;2023-03-01T12:24:21;9.50;99.90
19085;DHT22;9675;51.538;6.728;2023-03-01T12:27:12;9.70;99.90
19085;DHT22;9675;51.538;6.728;2023-03-01T12:29:55;9.70;99.90
19085;DHT22;9675;51.538;6.728;2023-03-01T12:32:45;9.70;99.90
19085;DHT22;9675;51.538;6.728;2023-03-01T12:35:46;9.70;99.90
19085;DHT22;9675;51.538;6.728;2023-03-01T12:38:36;9.80;99.90
19085;DHT22;9675;51.538;6.728;2023-03-01T12:41:34;9.90;99.90
19085;DHT22;9675;51.538;6.728;2023-03-01T12:44:24;10.10;99.90
19085;DHT22;9675;51.538;6.728;2023-03-01T12:47:11;10.10;99.90
19085;DHT22;9675;51.538;6.728;2023-03-01T12:49:49;10.20;99.90
19085;DHT22;9675;51.538;6.728;2023-03-01T12:52:25;10.30;99.90
19085;DHT22;9675;51.538;6.728;2023-03-01T12:55:02;10.30;99.90
19085;DHT22;9675;51.538;6.728;2023-03-01T12:57:40;10.40;99.90
19085;DHT22;9675;51.538;6.728;2023-03-01T13:00:25;10.50;99.90
19085;DHT22;9675;51.538;6.728;2023-03-01T13:03:00;10.50;99.90
19085;DHT22;9675;51.538;6.728;2023-03-01T13:05:45;10.60;99.90
19085;DHT22;9675;51.538;6.728;2023-03-01T13:08:29;10.60;99.90
19085;DHT22;9675;51.538;6.728;2023-03-01T13:11:04;10.60;99.90
19085;DHT22;9675;51.538;6.728;2023-03-01T13:13:38;10.60;99.90
19085;DHT22;9675;51.538;6.728;2023-03-01T13:16:39;10.70;99.90
19085;DHT22;9675;51.538;6.728;2023-03-01T13:19:12;10.70;99.90
19085;DHT22;9675;51.538;6.728;2023-03-01T13:21:42;10.80;99.90
19085;DHT22;9675;51.538;6.728;2023-03-01T13:24:25;10.80;99.90
19085;DHT22;9675;51.538;6.728;2023-03-01T13:27:20;10.90;99.90
19085;DHT22;9675;51.538;6.728;2023-03-01T13:29:56;10.90;99.90
19085;DHT22;9675;51.538;6.728;2023-03-01T13:32:30;11.00;99.90
19085;DHT22;9675;51.538;6.728;2023-03-01T13:34:59;11.00;99.90
19085;DHT22;9675;51.538;6.728;2023-03-01T13:37:38;11.10;99.90
19085;DHT22;9675;51.538;6.728;2023-03-01T13:43:31;11.00;99.90
19085;DHT22;9675;51.538;6.728;2023-03-01T13:46:02;11.10;99.90
19085;DHT22;9675;51.538;6.728;2023-03-01T13:48:37;11.20;99.90
19085;DHT22;9675;51.538;6.728;2023-03-01T13:51:08;11.20;99.90
19085;DHT22;9675;51.538;6.728;2023-03-01T13:53:41;11.20;99.90
19085;DHT22;9675;51.538;6.728;2023-03-01T13:56:13;11.30;99.90
19085;DHT22;9675;51.538;6.728;2023-03-01T13:58:50;11.30;99.90
19085;DHT22;9675;51.538;6.728;2023-03-01T14:01:25;11.40;99.90
19085;DHT22;9675;51.538;6.728;2023-03-01T14:03:55;11.50;99.90
19085;DHT22;9675;51.538;6.728;2023-03-01T14:06:24;11.60;99.90
19085;DHT22;9675;51.538;6.728;2023-03-01T14:09:01;11.70;99.90
19085;DHT22;9675;51.538;6.728;2023-03-01T14:12:14;11.70;99.90
19085;DHT22;9675;51.538;6.728;2023-03-01T14:14:59;11.80;99.90
19085;DHT22;9675;51.538;6.728;2023-03-01T14:20:32;11.90;99.90
19085;DHT22;9675;51.538;6.728;2023-03-01T14:23:02;11.90;99.90
19085;DHT22;9675;51.538;6.728;2023-03-01T14:25:38;11.80;99.90
19085;DHT22;9675;51.538;6.728;2023-03-01T14:28:16;11.80;99.90
19085;DHT22;9675;51.538;6.728;2023-03-01T14:30:49;11.80;99.90
19085;DHT22;9675;51.538;6.728;2023-03-01T14:33:22;11.80;99.90
19085;DHT22;9675;51.538;6.728;2023-03-01T14:35:55;11.90;99.90
19085;DHT22;9675;51.538;6.728;2023-03-01T14:38:29;12.00;99.90
19085;DHT22;9675;51.538;6.728;2023-03-01T14:41:00;12.10;99.90
19085;DHT22;9675;51.538;6.728;2023-03-01T14:43:31;12.00;99.90
19085;DHT22;9675;51.538;6.728;2023-03-01T14:46:00;12.10;99.90
19085;DHT22;9675;51.538;6.728;2023-03-01T14:48:28;12.00;99.90
19085;DHT22;9675;51.538;6.728;2023-03-01T14:50:57;12.00;99.90
19085;DHT22;9675;51.538;6.728;2023-03-01T14:53:27;12.00;99.90
19085;DHT22;9675;51.538;6.728;2023-03-01T14:56:00;12.00;99.90
19085;DHT22;9675;51.538;6.728;2023-03-01T14:58:28;12.00;99.90
19085;DHT22;9675;51.538;6.728;2023-03-01T15:01:03;12.00;99.90
19085;DHT22;9675;51.538;6.728;2023-03-01T15:03:33;12.00;99.90
19085;DHT22;9675;51.538;6.728;2023-03-01T15:06:03;12.10;99.90
19085;DHT22;9675;51.538;6.728;2023-03-01T15:08:32;12.10;99.90
19085;DHT22;9675;51.538;6.728;2023-03-01T15:11:04;12.00;99.90
19085;DHT22;9675;51.538;6.728;2023-03-01T15:13:43;12.00;99.90
19085;DHT22;9675;51.538;6.728;2023-03-01T15:16:14;12.00;99.90
19085;DHT22;9675;51.538;6.728;2023-03-01T15:18:45;12.00;99.90
19085;DHT22;9675;51.538;6.728;2023-03-01T15:21:17;12.00;99.90
19085;DHT22;9675;51.538;6.728;2023-03-01T15:23:50;11.90;99.90
19085;DHT22;9675;51.538;6.728;2023-03-01T15:26:24;11.90;99.90
19085;DHT22;9675;51.538;6.728;2023-03-01T15:28:54;12.00;99.90
19085;DHT22;9675;51.538;6.728;2023-03-01T15:31:27;12.00;99.90
19085;DHT22;9675;51.538;6.728;2023-03-01T15:34:19;12.00;99.90
19085;DHT22;9675;51.538;6.728;2023-03-01T15:36:49;12.00;99.90
19085;DHT22;9675;51.538;6.728;2023-03-01T15:39:31;12.00;99.90
19085;DHT22;9675;51.538;6.728;2023-03-01T15:42:03;12.00;99.90
19085;DHT22;9675;51.538;6.728;2023-03-01T15:44:33;12.00;99.90
19085;DHT22;9675;51.538;6.728;2023-03-01T15:47:08;11.90;99.90
19085;DHT22;9675;51.538;6.728;2023-03-01T15:49:51;11.90;99.90
19085;DHT22;9675;51.538;6.728;2023-03-01T15:52:22;11.90;99.90
19085;DHT22;9675;51.538;6.728;2023-03-01T15:54:55;11.90;99.90
19085;DHT22;9675;51.538;6.728;2023-03-01T15:57:24;11.90;99.90
19085;DHT22;9675;51.538;6.728;2023-03-01T15:59:51;11.80;99.90
19085;DHT22;9675;51.538;6.728;2023-03-01T16:02:19;11.80;99.90
19085;DHT22;9675;51.538;6.728;2023-03-01T16:04:47;11.70;99.90
19085;DHT22;9675;51.538;6.728;2023-03-01T16:07:15;11.70;99.90
19085;DHT22;9675;51.538;6.728;2023-03-01T16:09:42;11.70;99.90
19085;DHT22;9675;51.538;6.728;2023-03-01T16:12:14;11.70;99.90
19085;DHT22;9675;51.538;6.728;2023-03-01T16:14:43;11.70;99.90
19085;DHT22;9675;51.538;6.728;2023-03-01T16:17:10;11.50;99.90
19085;DHT22;9675;51.538;6.728;2023-03-01T16:19:39;11.50;99.90
19085;DHT22;9675;51.538;6.728;2023-03-01T16:22:07;11.40;99.90
19085;DHT22;9675;51.538;6.728;2023-03-01T16:24:36;11.40;99.90
19085;DHT22;9675;51.538;6.728;2023-03-01T16:27:03;11.40;99.90
19085;DHT22;9675;51.538;6.728;2023-03-01T16:29:30;11.30;99.90
19085;DHT22;9675;51.538;6.728;2023-03-01T16:31:59;11.30;99.90
19085;DHT22;9675;51.538;6.728;2023-03-01T16:34:27;11.30;99.90
19085;DHT22;9675;51.538;6.728;2023-03-01T16:36:55;11.20;99.90
19085;DHT22;9675;51.538;6.728;2023-03-01T16:39:22;11.10;99.90